Terminal Aerodrome Forecast
Issued by NWS

Home | Current Version | Previous Version | Graphics & Text | Print | Product List | Glossary On
Versions: 1 2 3 4 5 6 7 8 9 10 11 12 13 14 15 16 17 18 19
000
FTUS43 KMPX 181300 AAA
TAFAXN
TAF AMD
KAXN 181343Z 1814/1912 10010KT 1/2SM FG VV002
     FM181500 12008KT 3SM BR BKN004 BKN009
     FM181600 13010KT 6SM BR SCT009
     FM181700 16014G20KT P6SM SCT035=

USA.gov is the U.S. government's official web portal to all federal, state and local government web resources and services.